Time;durP1;ratioP1;P1;durP2;ratioP2;P2;SDS_P1;SDS_P2;PMS_P1;PMS_P2;Temp;Humidity;BMP_temperature;BMP_pressure;BME280_temperature;BME280_humidity;BME280_pressure;Samples;Min_cycle;Max_cycle;Signal;HPM_P1;HPM_P2
2023/10/12 00:02:21;;;;;;;59.30;55.77;;;12.40;99.90;;;;;;5054062;28;20279;-76
2023/10/12 00:05:00;;;;;;;71.53;67.37;;;12.40;99.90;;;;;;5054687;28;20391;-76
2023/10/12 00:07:36;;;;;;;47.60;44.47;;;12.40;99.90;;;;;;5053787;28;20737;-76
2023/10/12 00:12:46;;;;;;;56.00;52.30;;;12.50;99.90;;;;;;5047979;28;20311;-76
2023/10/12 00:17:48;;;;;;;68.07;64.40;;;12.50;99.90;;;;;;5050706;28;20283;-76
2023/10/12 00:22:55;;;;;;;65.00;60.83;;;12.50;99.90;;;;;;5047004;28;20493;-76
2023/10/12 00:25:20;;;;;;;45.70;42.63;;;12.50;99.90;;;;;;5043975;28;20857;-76
2023/10/12 00:27:47;;;;;;;40.30;37.17;;;12.50;99.90;;;;;;5044852;28;20274;-76
2023/10/12 00:30:14;;;;;;;51.87;48.37;;;12.50;99.90;;;;;;5049471;28;20071;-76
2023/10/12 00:32:41;;;;;;;46.17;42.57;;;12.40;99.90;;;;;;5053602;28;21241;-76
2023/10/12 00:35:11;;;;;;;51.07;47.77;;;12.40;99.90;;;;;;5048605;28;20314;-76
2023/10/12 00:37:37;;;;;;;35.77;32.50;;;12.40;99.90;;;;;;5052541;28;20279;-76
2023/10/12 00:40:26;;;;;;;45.53;42.13;;;12.40;99.90;;;;;;5037722;28;20283;-76
2023/10/12 00:42:52;;;;;;;43.93;40.97;;;12.40;99.90;;;;;;5058994;28;20766;-76
2023/10/12 00:45:29;;;;;;;60.50;56.57;;;12.40;99.90;;;;;;5035334;28;20799;-76
2023/10/12 00:48:06;;;;;;;54.33;50.57;;;12.30;99.90;;;;;;5037806;28;20775;-76
2023/10/12 00:50:32;;;;;;;35.30;32.37;;;12.40;99.90;;;;;;5034338;28;20332;-76
2023/10/12 00:53:15;;;;;;;41.20;38.43;;;12.40;99.90;;;;;;5039578;28;20296;-75
2023/10/12 00:55:41;;;;;;;27.33;25.17;;;12.30;99.90;;;;;;5043502;28;20326;-76
2023/10/12 00:58:14;;;;;;;27.37;25.27;;;12.30;99.90;;;;;;5035587;28;20280;-76
2023/10/12 01:00:51;;;;;;;25.33;22.73;;;12.20;99.90;;;;;;5037954;28;20288;-76
2023/10/12 01:06:13;;;;;;;23.97;22.13;;;12.10;99.90;;;;;;5040116;28;20291;-76
2023/10/12 01:08:43;;;;;;;20.50;18.77;;;12.00;99.90;;;;;;5049449;28;20291;-76
2023/10/12 01:11:26;;;;;;;15.47;13.73;;;12.00;99.90;;;;;;5045953;28;20283;-76
2023/10/12 01:16:41;;;;;;;22.70;20.50;;;11.80;99.90;;;;;;5044271;28;20317;-76
2023/10/12 01:19:07;;;;;;;16.93;15.13;;;11.80;99.90;;;;;;5044178;28;20280;-76
2023/10/12 01:21:36;;;;;;;23.73;21.57;;;11.70;99.90;;;;;;5029956;28;20699;-76
2023/10/12 01:24:11;;;;;;;23.53;21.97;;;11.70;99.90;;;;;;5048221;28;20124;-76
2023/10/12 01:26:38;;;;;;;20.00;18.40;;;11.70;99.90;;;;;;5047571;28;20280;-76
2023/10/12 01:29:04;;;;;;;41.93;39.17;;;11.60;99.90;;;;;;5046374;28;20287;-76
2023/10/12 01:31:30;;;;;;;35.60;33.37;;;11.60;99.90;;;;;;5049128;28;20621;-76
2023/10/12 01:33:57;;;;;;;39.17;36.53;;;11.60;99.90;;;;;;5047499;28;20532;-76
2023/10/12 01:36:27;;;;;;;39.47;37.23;;;11.70;99.90;;;;;;5045095;28;20045;-76
2023/10/12 01:39:15;;;;;;;38.03;35.20;;;11.70;99.90;;;;;;5028668;28;20831;-76
2023/10/12 01:41:42;;;;;;;32.13;30.00;;;11.70;99.90;;;;;;5046905;28;20287;-76
2023/10/12 01:44:11;;;;;;;25.67;23.63;;;11.70;99.90;;;;;;5048661;28;20291;-76
2023/10/12 01:46:41;;;;;;;39.63;36.83;;;11.70;99.90;;;;;;5041685;28;20786;-76
2023/10/12 01:49:08;;;;;;;38.67;35.80;;;11.70;99.90;;;;;;5031311;28;20275;-76
2023/10/12 01:51:40;;;;;;;47.37;44.33;;;11.80;99.90;;;;;;5032827;28;20737;-76
2023/10/12 01:54:10;;;;;;;41.20;38.43;;;11.80;99.90;;;;;;5046314;28;20396;-76
2023/10/12 01:56:37;;;;;;;39.57;36.63;;;11.80;99.90;;;;;;5048682;28;20321;-76
2023/10/12 01:59:07;;;;;;;39.27;36.60;;;11.80;99.90;;;;;;5051077;28;20283;-76
2023/10/12 02:01:41;;;;;;;26.77;25.03;;;11.80;99.90;;;;;;5050780;28;20370;-76
2023/10/12 02:04:07;;;;;;;22.38;20.67;;;11.80;99.90;;;;;;5044673;28;20783;-76
2023/10/12 02:06:33;;;;;;;35.67;33.27;;;11.80;99.90;;;;;;5047318;28;20052;-76
2023/10/12 02:09:10;;;;;;;42.30;39.77;;;11.80;99.90;;;;;;5048211;28;20100;-76
2023/10/12 02:11:43;;;;;;;16.33;14.60;;;11.80;99.90;;;;;;5051238;28;20036;-76
2023/10/12 02:14:11;;;;;;;32.80;30.57;;;11.80;99.90;;;;;;5049806;28;20291;-76
2023/10/12 02:16:37;;;;;;;39.30;36.53;;;11.80;99.90;;;;;;5046311;28;20307;-76
2023/10/12 02:19:04;;;;;;;56.87;53.60;;;11.70;99.90;;;;;;5048799;28;20287;-76
2023/10/12 02:21:33;;;;;;;48.17;44.63;;;11.70;99.90;;;;;;5052232;28;20311;-77
2023/10/12 02:31:32;;;;;;;39.43;36.10;;;11.60;99.90;;;;;;5054554;28;20370;-76
2023/10/12 02:34:01;;;;;;;38.20;35.57;;;11.60;99.90;;;;;;5042791;28;20456;-76
2023/10/12 02:36:26;;;;;;;27.43;25.33;;;11.50;99.90;;;;;;5046169;28;20044;-76
2023/10/12 02:38:59;;;;;;;37.90;34.87;;;11.50;99.90;;;;;;5038160;28;20318;-76
2023/10/12 02:41:26;;;;;;;37.40;34.90;;;11.50;99.90;;;;;;5031813;28;20036;-76
2023/10/12 02:43:57;;;;;;;34.20;31.83;;;11.50;99.90;;;;;;5050995;28;20791;-76
2023/10/12 02:46:23;;;;;;;35.30;32.57;;;11.50;99.90;;;;;;5044502;28;20335;-76
2023/10/12 02:48:51;;;;;;;43.47;40.57;;;11.50;99.90;;;;;;5042868;28;20272;-76
2023/10/12 02:51:22;;;;;;;45.13;41.87;;;11.40;99.90;;;;;;5049067;28;20033;-76
2023/10/12 02:53:50;;;;;;;41.60;38.87;;;11.40;99.90;;;;;;5027627;28;20937;-76
2023/10/12 02:56:24;;;;;;;42.83;40.13;;;11.40;99.90;;;;;;5029877;28;20845;-76
2023/10/12 02:58:49;;;;;;;29.37;26.83;;;11.40;99.90;;;;;;5048775;28;20298;-76
2023/10/12 03:01:21;;;;;;;37.80;35.00;;;11.40;99.90;;;;;;5050885;28;20363;-76
2023/10/12 03:03:48;;;;;;;40.60;37.70;;;11.30;99.90;;;;;;5053087;28;20045;-76
2023/10/12 03:06:20;;;;;;;46.67;43.37;;;11.30;99.90;;;;;;5049606;28;20276;-76
2023/10/12 03:09:02;;;;;;;39.47;36.20;;;11.30;99.90;;;;;;5047726;28;20292;-76
2023/10/12 03:11:29;;;;;;;36.90;33.70;;;11.30;99.90;;;;;;5046042;28;20283;-76
2023/10/12 03:14:13;;;;;;;55.47;51.50;;;11.20;99.90;;;;;;5049753;28;20287;-76
2023/10/12 03:16:42;;;;;;;58.80;54.93;;;11.20;99.90;;;;;;5034714;28;20287;-76
2023/10/12 03:19:23;;;;;;;36.83;34.20;;;11.20;99.90;;;;;;5041716;28;20279;-76
2023/10/12 03:21:49;;;;;;;51.47;47.90;;;11.20;99.90;;;;;;5045937;28;20325;-76
2023/10/12 03:24:16;;;;;;;43.67;40.50;;;11.10;99.90;;;;;;5052669;28;20295;-76
2023/10/12 03:27:10;;;;;;;35.50;32.37;;;11.10;99.90;;;;;;5052125;28;20886;-76
2023/10/12 03:29:43;;;;;;;35.93;32.97;;;11.10;99.90;;;;;;5044800;28;20306;-76
2023/10/12 03:32:12;;;;;;;19.77;17.93;;;11.10;99.90;;;;;;5049302;28;20362;-76
2023/10/12 03:37:14;;;;;;;29.37;26.77;;;11.10;99.90;;;;;;5040969;28;20337;-76
2023/10/12 03:45:07;;;;;;;37.40;34.87;;;11.00;99.90;;;;;;5044713;28;21854;-76
2023/10/12 03:47:46;;;;;;;25.67;23.63;;;10.90;99.90;;;;;;5045373;28;20283;-76
2023/10/12 03:50:16;;;;;;;34.43;31.53;;;10.90;99.90;;;;;;5063371;28;20962;-76
2023/10/12 03:52:51;;;;;;;35.97;33.23;;;10.90;99.90;;;;;;5045423;28;20302;-76
2023/10/12 03:55:27;;;;;;;18.50;12.87;;;10.90;99.90;;;;;;5046081;28;20359;-76
2023/10/12 03:58:00;;;;;;;19.57;17.67;;;10.90;99.90;;;;;;5040004;28;20288;-76
2023/10/12 04:00:36;;;;;;;11.87;9.80;;;10.80;99.90;;;;;;5049612;28;20282;-76
2023/10/12 04:03:12;;;;;;;22.23;20.40;;;10.80;99.90;;;;;;5045653;28;20283;-76
2023/10/12 04:05:55;;;;;;;24.70;22.70;;;10.80;99.90;;;;;;5046366;28;20303;-77
2023/10/12 04:18:42;;;;;;;27.47;25.23;;;10.80;99.90;;;;;;5047236;28;20353;-76
2023/10/12 04:21:13;;;;;;;27.77;25.40;;;10.70;99.90;;;;;;5044170;28;20291;-76
2023/10/12 04:28:58;;;;;;;26.33;24.55;;;10.70;99.90;;;;;;5045429;28;20346;-76
2023/10/12 04:39:17;;;;;;;27.93;25.40;;;10.60;99.90;;;;;;5042175;28;20303;-76
2023/10/12 04:47:10;;;;;;;30.63;28.27;;;10.60;99.90;;;;;;5045365;28;20284;-76
2023/10/12 04:57:33;;;;;;;37.87;35.47;;;10.60;99.90;;;;;;5047112;28;20353;-76
2023/10/12 05:02:53;;;;;;;23.37;21.03;;;10.50;99.90;;;;;;5047929;28;20280;-76
2023/10/12 05:07:57;;;;;;;13.87;12.63;;;10.50;99.90;;;;;;5050025;28;20295;-76
2023/10/12 05:10:48;;;;;;;17.97;16.10;;;10.50;99.90;;;;;;5045637;28;20286;-76
2023/10/12 05:13:21;;;;;;;20.60;13.57;;;10.40;99.90;;;;;;5041192;28;20272;-76
2023/10/12 05:15:54;;;;;;;36.60;34.43;;;10.40;99.90;;;;;;5044671;28;20287;-76
2023/10/12 05:18:22;;;;;;;31.47;28.93;;;10.40;99.90;;;;;;5030570;28;20365;-76
2023/10/12 05:20:48;;;;;;;17.70;12.67;;;10.40;99.90;;;;;;5043368;28;20283;-76
2023/10/12 05:23:14;;;;;;;26.63;24.30;;;10.40;99.90;;;;;;5046562;28;20314;-76
2023/10/12 05:28:31;;;;;;;21.00;19.27;;;10.40;99.90;;;;;;5044599;28;20045;-76
2023/10/12 05:31:09;;;;;;;29.83;27.93;;;10.40;99.90;;;;;;5042378;28;20283;-76
2023/10/12 05:36:10;;;;;;;33.80;31.10;;;10.30;99.90;;;;;;5046293;28;20271;-76
2023/10/12 05:38:38;;;;;;;23.40;21.65;;;10.20;99.90;;;;;;5028915;28;20426;-76
2023/10/12 05:41:08;;;;;;;36.03;33.37;;;10.20;99.90;;;;;;5035930;28;20108;-76
2023/10/12 05:43:40;;;;;;;22.30;20.40;;;10.10;99.90;;;;;;5043745;28;20337;-76
2023/10/12 05:46:15;;;;;;;25.40;23.80;;;10.10;99.90;;;;;;5043189;28;20695;-76
2023/10/12 05:48:45;;;;;;;41.90;38.67;;;10.10;99.90;;;;;;5046579;28;20275;-76
2023/10/12 05:51:19;;;;;;;41.10;38.00;;;10.00;99.90;;;;;;5049731;28;20271;-76
2023/10/12 05:54:06;;;;;;;18.87;15.97;;;10.00;99.90;;;;;;5033431;28;20327;-76
2023/10/12 05:56:36;;;;;;;25.90;23.97;;;9.90;99.90;;;;;;5029048;28;20378;-76
2023/10/12 05:59:09;;;;;;;31.30;28.90;;;9.90;99.90;;;;;;5032733;28;20319;-76
2023/10/12 06:01:37;;;;;;;35.60;33.40;;;9.90;99.90;;;;;;5046718;28;20319;-76
2023/10/12 06:04:05;;;;;;;23.70;21.50;;;9.90;99.90;;;;;;5028381;28;20391;-76
2023/10/12 06:06:35;;;;;;;28.00;25.83;;;9.90;99.90;;;;;;5024178;28;20764;-76
2023/10/12 06:09:20;;;;;;;34.37;32.00;;;9.80;99.90;;;;;;5023577;28;20366;-76
2023/10/12 06:11:47;;;;;;;;;;;9.80;99.90;;;;;;5023659;28;20280;-76
2023/10/12 06:14:14;;;;;;;17.40;15.77;;;9.80;99.90;;;;;;5048602;28;19964;-76
2023/10/12 06:16:41;;;;;;;26.43;24.67;;;9.80;99.90;;;;;;5045536;28;20291;-76
2023/10/12 06:19:18;;;;;;;28.07;26.07;;;9.80;99.90;;;;;;5047808;28;20701;-76
2023/10/12 06:21:45;;;;;;;31.00;28.43;;;9.70;99.90;;;;;;5027051;28;20799;-76
2023/10/12 06:24:20;;;;;;;28.40;26.27;;;9.70;99.90;;;;;;5047183;28;20779;-76
2023/10/12 06:26:47;;;;;;;27.73;25.70;;;9.70;99.90;;;;;;5032510;28;20370;-77
2023/10/12 06:29:24;;;;;;;30.23;28.00;;;9.70;99.90;;;;;;5029030;28;20282;-76
2023/10/12 06:31:52;;;;;;;21.33;19.83;;;9.60;99.90;;;;;;5026090;28;20316;-76
2023/10/12 06:34:19;;;;;;;36.47;34.23;;;9.60;99.90;;;;;;5038024;28;20307;-76
2023/10/12 06:36:45;;;;;;;29.73;27.50;;;9.60;99.90;;;;;;5045604;28;20363;-76
2023/10/12 06:46:57;;;;;;;28.20;26.13;;;9.60;99.90;;;;;;5041426;28;20358;-76
2023/10/12 06:49:24;;;;;;;30.13;27.77;;;9.70;99.90;;;;;;5040946;28;20275;-76
2023/10/12 06:51:54;;;;;;;41.27;38.67;;;9.80;99.90;;;;;;5031635;28;20275;-76
2023/10/12 06:54:32;;;;;;;42.47;39.17;;;9.90;99.90;;;;;;5043869;28;20312;-76
2023/10/12 07:02:32;;;;;;;41.03;38.10;;;10.10;99.90;;;;;;5046191;28;20288;-76
2023/10/12 07:04:59;;;;;;;38.13;35.40;;;10.30;99.90;;;;;;5040601;28;20124;-76
2023/10/12 07:07:30;;;;;;;25.83;23.57;;;10.40;99.90;;;;;;5037427;28;20306;-76
2023/10/12 07:12:47;;;;;;;34.27;32.00;;;10.60;99.90;;;;;;5049016;28;20276;-76
2023/10/12 07:15:23;;;;;;;;;;;10.70;99.90;;;;;;5029614;28;20324;-76
2023/10/12 07:17:49;;;;;;;;;;;10.90;99.90;;;;;;5035257;28;20304;-76
2023/10/12 07:23:06;;;;;;;17.73;14.40;;;11.10;99.90;;;;;;5039645;28;20129;-76
2023/10/12 07:25:37;;;;;;;48.00;45.20;;;11.20;99.90;;;;;;5033459;28;20796;-76
2023/10/12 07:28:05;;;;;;;40.03;37.40;;;11.30;99.90;;;;;;5041159;28;20051;-76
2023/10/12 07:30:33;;;;;;;52.87;50.03;;;11.40;99.90;;;;;;5045014;28;20353;-76
2023/10/12 07:33:05;;;;;;;49.50;46.13;;;11.50;99.90;;;;;;5040993;28;20391;-76
2023/10/12 07:35:32;;;;;;;70.00;66.40;;;11.60;99.90;;;;;;5027571;28;20352;-76
2023/10/12 07:38:13;;;;;;;61.00;57.17;;;11.70;99.90;;;;;;5048390;28;20276;-76
2023/10/12 07:40:56;;;;;;;55.97;53.17;;;11.70;99.90;;;;;;5048484;28;20361;-76
2023/10/12 07:43:26;;;;;;;42.40;39.73;;;11.80;99.90;;;;;;5049105;28;20306;-76
2023/10/12 07:45:52;;;;;;;41.07;38.20;;;11.80;99.90;;;;;;5048795;28;20416;-76
2023/10/12 07:48:39;;;;;;;30.00;27.73;;;11.90;99.90;;;;;;5030703;28;20288;-76
2023/10/12 07:51:16;;;;;;;57.17;54.27;;;11.90;99.90;;;;;;5045411;28;20720;-76
2023/10/12 07:53:50;;;;;;;57.63;54.60;;;12.00;99.90;;;;;;5062608;28;20296;-77
2023/10/12 07:56:16;;;;;;;44.60;42.13;;;12.10;99.90;;;;;;5044611;28;20291;-76
2023/10/12 07:58:50;;;;;;;35.27;32.97;;;12.10;99.90;;;;;;5051154;28;20925;-76
2023/10/12 08:01:26;;;;;;;58.60;55.40;;;12.20;99.90;;;;;;5049193;28;20283;-76
2023/10/12 08:03:52;;;;;;;61.63;58.13;;;12.30;99.90;;;;;;5048956;28;20441;-76
2023/10/12 08:06:36;;;;;;;38.07;35.60;;;12.40;99.90;;;;;;5023945;28;20784;-76
2023/10/12 08:09:21;;;;;;;53.80;50.63;;;12.50;99.90;;;;;;5030122;28;20383;-76
2023/10/12 08:11:46;;;;;;;27.27;25.40;;;12.50;99.90;;;;;;5048103;28;20311;-76
2023/10/12 08:17:24;;;;;;;24.65;22.45;;;12.50;99.90;;;;;;5065449;28;20106;-76
2023/10/12 08:22:29;;;;;;;73.97;70.23;;;12.50;99.90;;;;;;5018448;28;20350;-76
2023/10/12 08:24:57;;;;;;;64.30;60.73;;;12.50;99.90;;;;;;5051425;28;20299;-76
2023/10/12 08:27:24;;;;;;;76.23;72.63;;;12.60;99.90;;;;;;5047839;28;20834;-76
2023/10/12 08:32:27;;;;;;;87.03;82.03;;;12.60;99.90;;;;;;5052169;28;20635;-76
2023/10/12 08:37:26;;;;;;;96.03;91.17;;;12.70;99.90;;;;;;5050227;28;20651;-76
2023/10/12 08:44:59;;;;;;;81.30;77.23;;;12.80;99.90;;;;;;5046909;28;20361;-76
2023/10/12 08:50:04;;;;;;;72.30;68.80;;;12.90;99.90;;;;;;5044495;28;20322;-76
2023/10/12 08:52:38;;;;;;;59.23;55.57;;;13.00;99.90;;;;;;5043121;28;20317;-76
2023/10/12 08:55:12;;;;;;;61.23;57.90;;;13.00;99.90;;;;;;5039332;28;20314;-76
2023/10/12 08:58:04;;;;;;;56.43;53.43;;;13.10;99.90;;;;;;5041024;28;20393;-76
2023/10/12 09:03:05;;;;;;;87.37;82.80;;;13.30;99.90;;;;;;5044500;28;20304;-76
2023/10/12 09:05:32;;;;;;;54.27;51.20;;;13.40;99.90;;;;;;5028968;28;20299;-76
2023/10/12 09:10:49;;;;;;;77.27;73.33;;;13.40;99.90;;;;;;5040814;28;20280;-76
2023/10/12 09:13:18;;;;;;;76.17;72.37;;;13.40;99.90;;;;;;5055084;28;20291;-76
2023/10/12 09:15:48;;;;;;;54.83;51.87;;;13.40;99.90;;;;;;5027328;28;20291;-76
2023/10/12 09:18:18;;;;;;;57.80;54.50;;;13.40;99.90;;;;;;5029232;28;20322;-76
2023/10/12 09:23:29;;;;;;;92.13;87.50;;;13.40;99.90;;;;;;5042743;28;20779;-76
2023/10/12 09:36:28;;;;;;;49.77;46.77;;;13.90;99.90;;;;;;4992967;28;20839;-72
2023/10/12 09:39:00;;;;;;;36.50;34.03;;;13.90;99.90;;;;;;4998180;28;20309;-72
2023/10/12 09:41:32;;;;;;;40.03;37.70;;;13.90;99.90;;;;;;5005724;28;20292;-72
2023/10/12 09:44:00;;;;;;;55.10;52.30;;;14.00;99.90;;;;;;4976809;28;20353;-72
2023/10/12 09:46:32;;;;;;;74.17;70.47;;;14.00;99.90;;;;;;4978179;28;20296;-72
2023/10/12 09:49:06;;;;;;;49.47;46.63;;;14.10;99.90;;;;;;4979000;28;20288;-72
2023/10/12 09:51:37;;;;;;;51.03;48.50;;;14.10;99.90;;;;;;5007030;28;20933;-72
2023/10/12 09:54:15;;;;;;;43.43;40.60;;;14.20;99.90;;;;;;4973184;28;20049;-72
2023/10/12 09:56:46;;;;;;;34.37;31.83;;;14.20;99.90;;;;;;4988743;28;20335;-72
2023/10/12 09:59:18;;;;;;;35.03;32.70;;;14.10;99.90;;;;;;4989657;28;20293;-71
2023/10/12 10:01:50;;;;;;;43.53;40.73;;;14.10;99.90;;;;;;4990101;28;20324;-72
2023/10/12 10:07:17;;;;;;;56.20;52.83;;;14.20;99.90;;;;;;4989675;28;20362;-71
2023/10/12 10:09:49;;;;;;;41.97;39.33;;;14.30;99.90;;;;;;4976148;28;20292;-72
2023/10/12 10:12:20;;;;;;;49.97;47.53;;;14.40;99.90;;;;;;4996057;28;20284;-72
2023/10/12 10:14:51;;;;;;;51.07;47.73;;;14.30;99.90;;;;;;5002551;28;20300;-72
2023/10/12 10:17:23;;;;;;;47.47;44.63;;;14.30;99.90;;;;;;5004073;28;20304;-71
2023/10/12 10:20:19;;;;;;;72.77;69.27;;;14.20;99.90;;;;;;4973432;28;20383;-72
2023/10/12 10:22:50;;;;;;;37.20;34.58;;;14.10;99.90;;;;;;4976399;28;20379;-72
2023/10/12 10:25:18;;;;;;;66.40;63.07;;;14.10;99.90;;;;;;5004760;28;20034;-72
2023/10/12 10:27:43;;;;;;;61.80;58.47;;;14.20;99.90;;;;;;4992003;28;20848;-72
2023/10/12 10:30:36;;;;;;;66.23;62.53;;;14.30;99.90;;;;;;4989281;28;20284;-72
2023/10/12 10:33:22;;;;;;;54.83;51.77;;;14.40;99.90;;;;;;5002237;28;20041;-72
2023/10/12 10:35:58;;;;;;;68.13;64.67;;;14.50;99.90;;;;;;4979469;28;20302;-72
2023/10/12 10:38:30;;;;;;;81.43;77.50;;;14.60;99.90;;;;;;4957960;28;20847;-73
2023/10/12 10:41:05;;;;;;;86.97;82.63;;;14.70;99.90;;;;;;4965068;28;20285;-72
2023/10/12 10:43:35;;;;;;;83.97;79.97;;;14.80;99.90;;;;;;4966155;28;20297;-72
2023/10/12 10:46:05;;;;;;;70.40;67.00;;;15.00;99.90;;;;;;4968630;28;20317;-72
2023/10/12 10:48:34;;;;;;;68.77;65.57;;;15.10;99.90;;;;;;4965854;28;20293;-72
2023/10/12 10:51:04;;;;;;;47.57;44.53;;;15.10;99.90;;;;;;4969409;28;20646;-73
2023/10/12 10:53:31;;;;;;;70.57;67.23;;;15.00;99.90;;;;;;4968631;28;20421;-72
2023/10/12 10:56:00;;;;;;;54.73;51.80;;;15.00;99.90;;;;;;4952724;28;20289;-72
2023/10/12 10:58:25;;;;;;;51.60;49.07;;;15.00;99.90;;;;;;4967402;28;20285;-72
2023/10/12 11:00:57;;;;;;;85.17;80.93;;;14.90;99.90;;;;;;4970617;28;20343;-73
2023/10/12 11:03:25;;;;;;;63.13;59.67;;;14.80;99.90;;;;;;4970452;28;20053;-72
2023/10/12 11:05:51;;;;;;;56.90;53.83;;;14.80;99.90;;;;;;4969442;28;20375;-72
2023/10/12 11:08:21;;;;;;;76.83;72.37;;;14.80;99.90;;;;;;4971612;28;20803;-72
2023/10/12 11:13:46;;;;;;;46.70;43.67;;;14.90;99.90;;;;;;4950885;28;20285;-72
2023/10/12 11:19:09;;;;;;;92.60;88.13;;;14.60;99.90;;;;;;4973413;28;20400;-73
2023/10/12 11:21:35;;;;;;;69.17;65.93;;;14.60;99.90;;;;;;4969223;28;20356;-72
2023/10/12 11:24:03;;;;;;;48.73;46.20;;;14.60;99.90;;;;;;4975061;28;20744;-72
2023/10/12 11:26:29;;;;;;;73.20;69.50;;;14.60;99.90;;;;;;4973043;28;20846;-72
2023/10/12 11:29:06;;;;;;;78.23;74.27;;;14.60;99.90;;;;;;4973578;28;20277;-72
2023/10/12 11:31:33;;;;;;;69.80;66.50;;;14.60;99.90;;;;;;4961131;28;20289;-72
2023/10/12 11:34:06;;;;;;;97.10;92.30;;;14.70;99.90;;;;;;4971318;28;20644;-72
2023/10/12 11:36:35;;;;;;;66.83;63.30;;;14.70;99.90;;;;;;4985629;28;20316;-72
2023/10/12 11:39:04;;;;;;;84.63;80.53;;;14.70;99.90;;;;;;4972405;28;20401;-72
2023/10/12 11:41:30;;;;;;;63.17;59.57;;;14.70;99.90;;;;;;4967370;28;20327;-72
2023/10/12 11:44:05;;;;;;;101.47;96.67;;;14.70;99.90;;;;;;4970543;28;20921;-72
2023/10/12 11:46:43;;;;;;;;;;;14.60;99.90;;;;;;4989889;28;20301;-72
2023/10/12 11:49:10;;;;;;;76.43;72.63;;;14.60;99.90;;;;;;4970997;28;20423;-72
2023/10/12 11:51:50;;;;;;;186.43;177.97;;;14.50;99.90;;;;;;4971853;28;20293;-72
2023/10/12 11:54:20;;;;;;;77.90;74.27;;;14.50;99.90;;;;;;4978575;28;20300;-73
2023/10/12 11:56:51;;;;;;;81.07;77.20;;;14.50;99.90;;;;;;4984151;28;20291;-73
2023/10/12 11:59:27;;;;;;;48.27;45.67;;;14.50;99.90;;;;;;4983400;28;20888;-72
2023/10/12 12:01:57;;;;;;;39.97;37.80;;;14.40;99.30;;;;;;4959731;28;20285;-73
2023/10/12 12:04:39;;;;;;;78.73;75.00;;;14.40;99.90;;;;;;4958773;28;20309;-73
2023/10/12 12:07:06;;;;;;;58.33;55.23;;;14.30;99.90;;;;;;4969967;28;20293;-72
2023/10/12 12:09:48;;;;;;;58.50;55.03;;;14.20;99.90;;;;;;4980059;28;20316;-72
2023/10/12 12:12:16;;;;;;;75.20;71.57;;;14.20;99.90;;;;;;4977640;28;20293;-72
2023/10/12 12:14:49;;;;;;;35.93;33.83;;;14.20;99.90;;;;;;4980147;28;20285;-72
2023/10/12 12:17:18;;;;;;;74.83;71.17;;;14.10;99.90;;;;;;4980595;28;20293;-72
2023/10/12 12:19:43;;;;;;;70.30;66.73;;;14.20;99.90;;;;;;4965367;28;20285;-72
2023/10/12 12:22:15;;;;;;;60.47;57.57;;;14.20;99.90;;;;;;4981184;28;21125;-72
2023/10/12 12:24:44;;;;;;;51.37;48.63;;;14.10;99.90;;;;;;4965803;28;20117;-72
2023/10/12 12:29:57;;;;;;;49.28;46.72;;;14.10;99.90;;;;;;4979978;28;20282;-72
2023/10/12 12:32:26;;;;;;;59.23;55.97;;;14.10;98.90;;;;;;4983058;28;20663;-73
2023/10/12 12:34:54;;;;;;;43.50;40.93;;;14.20;99.90;;;;;;4978684;28;20312;-72
2023/10/12 12:37:20;;;;;;;68.10;64.77;;;14.20;99.90;;;;;;4980368;28;20859;-72
2023/10/12 12:40:27;;;;;;;65.90;62.57;;;14.20;99.90;;;;;;4961036;28;20285;-72
2023/10/12 12:42:37;;;;;;;69.63;66.20;;;14.20;99.90;;;;;;4976257;28;20888;-72
2023/10/12 12:45:03;;;;;;;39.17;36.83;;;14.20;99.30;;;;;;4973012;28;20361;-72
2023/10/12 12:47:32;;;;;;;45.73;43.43;;;14.30;99.80;;;;;;4972622;28;20533;-72
2023/10/12 12:50:02;;;;;;;76.37;72.57;;;14.20;96.50;;;;;;4967356;28;20298;-72
2023/10/12 12:52:28;;;;;;;60.87;57.77;;;14.20;97.50;;;;;;4974068;28;20775;-72
2023/10/12 12:54:55;;;;;;;115.20;108.80;;;14.20;98.90;;;;;;4973613;28;20293;-72
2023/10/12 12:57:23;;;;;;;70.30;66.60;;;14.20;99.90;;;;;;4957146;28;20042;-72
2023/10/12 12:59:49;;;;;;;56.67;53.87;;;14.20;99.90;;;;;;4974707;28;20293;-72
2023/10/12 13:02:14;;;;;;;752.13;706.17;;;14.20;99.90;;;;;;4972151;28;20618;-72
2023/10/12 13:04:40;;;;;;;61.80;58.53;;;14.10;98.70;;;;;;4957571;28;20121;-72
2023/10/12 13:07:08;;;;;;;60.80;57.23;;;14.10;98.90;;;;;;4998706;28;20042;-72
2023/10/12 13:09:36;;;;;;;72.33;68.60;;;14.10;98.60;;;;;;4964084;28;20041;-72
2023/10/12 13:12:05;;;;;;;415.70;396.67;;;14.10;99.30;;;;;;4971555;28;20353;-72
2023/10/12 13:14:32;;;;;;;494.10;471.93;;;14.00;99.20;;;;;;4972048;28;20380;-72
2023/10/12 13:16:58;;;;;;;260.20;248.83;;;14.00;99.30;;;;;;4953755;28;20412;-72
2023/10/12 13:19:24;;;;;;;258.17;247.23;;;13.90;97.20;;;;;;4971655;28;20860;-71
2023/10/12 13:21:50;;;;;;;94.50;89.63;;;13.80;97.80;;;;;;4969630;28;20129;-72
2023/10/12 13:24:16;;;;;;;74.73;70.90;;;13.70;99.00;;;;;;4985732;28;20046;-72
2023/10/12 13:26:45;;;;;;;41.17;39.13;;;13.70;99.10;;;;;;4955608;28;21031;-72
2023/10/12 13:29:12;;;;;;;81.70;77.67;;;13.60;99.90;;;;;;4969419;28;20081;-72
2023/10/12 13:31:38;;;;;;;45.93;43.23;;;13.60;99.90;;;;;;4962471;28;20372;-72
2023/10/12 13:34:05;;;;;;;79.73;76.07;;;13.50;99.40;;;;;;4968429;28;20386;-72
2023/10/12 13:36:34;;;;;;;59.73;56.47;;;13.50;99.80;;;;;;4969539;28;20112;-72
2023/10/12 13:39:00;;;;;;;44.83;42.07;;;13.40;98.30;;;;;;4951813;28;20287;-72
2023/10/12 13:41:26;;;;;;;42.10;39.40;;;13.40;98.40;;;;;;4968719;28;20273;-72
2023/10/12 13:43:52;;;;;;;42.50;39.83;;;13.40;98.60;;;;;;4974128;28;20091;-72
2023/10/12 13:46:18;;;;;;;47.27;44.33;;;13.30;99.40;;;;;;4969362;28;20832;-72
2023/10/12 13:48:47;;;;;;;37.57;34.93;;;13.40;99.90;;;;;;4953303;28;20297;-72
2023/10/12 13:51:23;;;;;;;45.77;43.23;;;13.40;99.90;;;;;;4952615;28;20046;-72
2023/10/12 13:53:52;;;;;;;39.27;36.73;;;13.40;99.90;;;;;;4975983;28;20290;-72
2023/10/12 13:56:18;;;;;;;46.87;44.27;;;13.40;97.20;;;;;;4971288;28;20855;-72
2023/10/12 13:58:44;;;;;;;51.37;48.53;;;13.40;98.80;;;;;;4970326;28;20290;-72
2023/10/12 14:01:18;;;;;;;48.47;45.80;;;13.40;99.80;;;;;;4969738;28;20291;-72
2023/10/12 14:03:45;;;;;;;46.40;43.33;;;13.30;99.90;;;;;;4976492;28;20042;-72
2023/10/12 14:06:12;;;;;;;27.73;25.80;;;13.30;99.90;;;;;;4952438;28;20316;-72
2023/10/12 14:08:42;;;;;;;44.80;42.33;;;13.30;97.50;;;;;;4952799;28;20797;-72
2023/10/12 14:11:14;;;;;;;47.97;45.20;;;13.30;97.70;;;;;;4955232;28;20301;-72
2023/10/12 14:13:39;;;;;;;50.13;47.43;;;13.30;98.10;;;;;;4954845;28;20294;-72
2023/10/12 14:16:11;;;;;;;42.73;39.77;;;13.20;98.00;;;;;;4972618;28;20389;-72
2023/10/12 14:18:38;;;;;;;36.70;34.47;;;13.20;99.80;;;;;;4970922;28;20134;-72
2023/10/12 14:21:09;;;;;;;28.43;26.40;;;13.20;99.90;;;;;;4971418;28;20400;-72
2023/10/12 14:23:46;;;;;;;47.27;44.73;;;13.10;99.90;;;;;;4971640;28;20657;-72
2023/10/12 14:26:22;;;;;;;33.27;31.20;;;13.10;99.90;;;;;;4963161;28;20309;-72
2023/10/12 14:28:53;;;;;;;30.67;28.20;;;13.00;99.90;;;;;;4966984;28;20373;-72
2023/10/12 14:31:22;;;;;;;28.00;25.83;;;13.00;99.90;;;;;;4968258;28;20316;-72
2023/10/12 14:33:49;;;;;;;45.70;43.33;;;13.00;99.90;;;;;;4968395;28;20344;-73
2023/10/12 14:36:16;;;;;;;32.70;30.77;;;13.10;99.90;;;;;;4966756;28;20328;-72
2023/10/12 14:38:44;;;;;;;38.07;36.07;;;13.00;99.90;;;;;;4950255;28;20312;-72
2023/10/12 14:41:16;;;;;;;39.37;36.70;;;13.10;99.90;;;;;;4967538;28;20819;-72
2023/10/12 14:43:46;;;;;;;41.40;38.90;;;13.10;98.20;;;;;;4952056;28;20296;-72
2023/10/12 14:46:13;;;;;;;38.40;36.17;;;13.10;99.90;;;;;;4951461;28;20316;-73
2023/10/12 14:48:43;;;;;;;48.67;46.00;;;13.10;99.60;;;;;;4967549;28;20355;-72
2023/10/12 14:51:17;;;;;;;35.30;32.93;;;13.10;99.90;;;;;;4967494;28;20293;-72
2023/10/12 14:53:50;;;;;;;34.37;32.07;;;13.10;99.90;;;;;;4968387;28;20507;-72
2023/10/12 14:56:29;;;;;;;42.57;40.07;;;13.10;99.90;;;;;;4967492;28;20359;-72
2023/10/12 14:58:56;;;;;;;25.47;23.17;;;13.10;99.90;;;;;;4967587;28;20280;-73
2023/10/12 15:01:27;;;;;;;36.93;34.70;;;13.10;99.90;;;;;;4951938;28;20289;-72
2023/10/12 15:03:54;;;;;;;25.03;23.13;;;13.10;99.90;;;;;;4968748;28;20285;-72
2023/10/12 15:06:20;;;;;;;38.17;35.73;;;13.10;99.90;;;;;;4964090;28;20315;-72
2023/10/12 15:08:48;;;;;;;41.20;38.30;;;13.00;99.90;;;;;;4972208;28;20685;-72
2023/10/12 15:11:14;;;;;;;42.73;40.07;;;13.00;99.90;;;;;;4965882;28;20981;-73